Time;durP1;ratioP1;P1;durP2;ratioP2;P2;SDS_P1;SDS_P2;PMS_P1;PMS_P2;Temp;Humidity;BMP_temperature;BMP_pressure;BME280_temperature;BME280_humidity;BME280_pressure;Samples;Min_cycle;Max_cycle;Signal;HPM_P1;HPM_P2
2022/01/18 01:50:27;;;;;;;16.00;6.35;;;;;;;;;;6299887;22;20035;-75
2022/01/18 01:52:56;;;;;;;8.93;4.30;;;;;;;;;;6282234;22;20047;-77
2022/01/18 04:37:34;;;;;;;11.15;3.92;;;;;;;;;;6234728;22;20050;-76
2022/01/18 04:40:11;;;;;;;7.10;3.50;;;;;;;;;;6269940;23;19984;-75
2022/01/18 05:52:48;;;;;;;8.55;4.13;;;;;;;;;;6263890;22;20255;-78
2022/01/18 05:55:14;;;;;;;11.45;4.28;;;;;;;;;;6258001;23;20027;-77
2022/01/18 05:57:40;;;;;;;9.02;4.60;;;;;;;;;;6265374;22;20004;-75
2022/01/18 06:00:28;;;;;;;9.43;4.45;;;;;;;;;;6256637;23;20008;-75
2022/01/18 06:08:27;;;;;;;21.35;9.15;;;;;;;;;;6241746;22;20023;-77
2022/01/18 06:13:29;;;;;;;15.50;9.02;;;;;;;;;;6258677;22;20032;-76
2022/01/18 06:15:55;;;;;;;11.10;6.15;;;;;;;;;;6257540;22;19997;-76
2022/01/18 06:20:54;;;;;;;11.02;4.43;;;;;;;;;;6290278;22;20020;-77
2022/01/18 06:23:23;;;;;;;11.93;4.80;;;;;;;;;;6262557;22;20003;-77
2022/01/18 06:25:49;;;;;;;9.02;4.85;;;;;;;;;;6262671;22;20006;-77
2022/01/18 06:28:21;;;;;;;13.27;5.85;;;;;;;;;;6287513;22;20000;-75
2022/01/18 06:30:50;;;;;;;14.38;6.90;;;;;;;;;;6266075;22;19991;-74
2022/01/18 06:35:52;;;;;;;20.67;9.20;;;;;;;;;;6301240;22;20030;-76
2022/01/18 06:40:54;;;;;;;19.13;10.32;;;;;;;;;;6245299;22;20044;-75
2022/01/18 06:43:20;;;;;;;75.68;35.45;;;;;;;;;;6220447;23;20012;-77
2022/01/18 06:46:05;;;;;;;68.80;34.00;;;;;;;;;;6245164;23;20004;-76
2022/01/18 06:49:10;;;;;;;22.38;12.18;;;;;;;;;;6270867;23;19991;-75
2022/01/18 06:51:45;;;;;;;39.33;23.73;;;;;;;;;;6116346;23;20085;-73
2022/01/18 06:54:17;;;;;;;19.50;11.63;;;;;;;;;;6115437;23;20013;-77
2022/01/18 06:56:47;;;;;;;24.17;11.55;;;;;;;;;;6094070;23;20028;-74
2022/01/18 06:59:13;;;;;;;14.57;6.97;;;;;;;;;;6095921;23;20006;-75
2022/01/18 07:05:02;;;;;;;11.05;5.72;;;;;;;;;;6090630;23;20054;-76
2022/01/18 07:07:28;;;;;;;12.30;5.45;;;;;;;;;;6060932;23;20110;-72
2022/01/18 07:09:54;;;;;;;13.95;6.90;;;;;;;;;;6060045;23;20019;-72
2022/01/18 07:12:21;;;;;;;15.77;7.75;;;;;;;;;;6061004;23;19997;-74
2022/01/18 07:14:48;;;;;;;18.88;9.18;;;;;;;;;;6088507;23;20003;-75
2022/01/18 07:17:17;;;;;;;24.25;9.95;;;;;;;;;;6088615;23;20084;-75
2022/01/18 07:19:43;;;;;;;16.17;7.80;;;;;;;;;;6091199;23;20007;-76
2022/01/18 07:22:12;;;;;;;17.23;9.10;;;;;;;;;;6061109;23;20007;-77
2022/01/18 07:24:43;;;;;;;21.45;10.35;;;;;;;;;;6061232;23;20051;-76
2022/01/18 07:27:11;;;;;;;22.60;11.05;;;;;;;;;;6084678;23;20014;-78
2022/01/18 07:29:41;;;;;;;28.27;13.15;;;;;;;;;;6175510;23;20085;-79
2022/01/18 07:32:07;;;;;;;20.92;9.55;;;;;;;;;;6143427;23;20061;-77
2022/01/18 07:34:38;;;;;;;19.77;10.00;;;;;;;;;;6144103;23;20072;-76
2022/01/18 07:37:06;;;;;;;15.85;7.22;;;;;;;;;;6169537;23;19989;-76
2022/01/18 07:39:33;;;;;;;18.83;7.57;;;;;;;;;;6195619;22;20004;-73
2022/01/18 07:41:59;;;;;;;15.57;7.82;;;;;;;;;;6277736;22;20046;-76
2022/01/18 07:44:25;;;;;;;20.38;9.68;;;;;;;;;;6299520;22;20007;-74
2022/01/18 07:46:51;;;;;;;16.77;8.45;;;;;;;;;;6300451;22;20047;-76
2022/01/18 07:49:18;;;;;;;15.63;7.78;;;;;;;;;;6334095;22;19987;-76
2022/01/18 07:51:50;;;;;;;19.88;9.00;;;;;;;;;;6281027;22;20011;-76
2022/01/18 07:54:38;;;;;;;18.73;9.07;;;;;;;;;;6300471;22;20015;-75
2022/01/18 07:57:12;;;;;;;15.38;8.52;;;;;;;;;;6329300;22;20014;-76
2022/01/18 07:59:40;;;;;;;19.45;10.55;;;;;;;;;;6331527;22;20003;-76
2022/01/18 08:02:10;;;;;;;19.83;9.52;;;;;;;;;;6335256;22;19986;-76
2022/01/18 08:04:36;;;;;;;17.98;9.05;;;;;;;;;;6308315;22;19999;-76
2022/01/18 08:07:02;;;;;;;16.50;8.55;;;;;;;;;;6334927;22;20030;-76
2022/01/18 08:09:28;;;;;;;17.30;7.15;;;;;;;;;;6332983;22;20014;-76
2022/01/18 08:11:54;;;;;;;13.95;6.80;;;;;;;;;;6308668;22;20011;-76
2022/01/18 08:14:21;;;;;;;12.50;6.75;;;;;;;;;;6308182;22;20002;-76
2022/01/18 08:17:22;;;;;;;15.45;6.18;;;;;;;;;;6304047;22;20015;-76
2022/01/18 08:19:41;;;;;;;19.80;7.93;;;;;;;;;;6325462;22;19994;-76
2022/01/18 08:22:08;;;;;;;17.50;7.43;;;;;;;;;;6307470;22;19988;-77
2022/01/18 08:24:35;;;;;;;18.90;9.93;;;;;;;;;;6307652;22;20007;-76
2022/01/18 08:27:05;;;;;;;15.02;6.90;;;;;;;;;;6301465;22;20007;-78
2022/01/18 08:29:32;;;;;;;15.10;6.32;;;;;;;;;;6250801;22;20048;-75
2022/01/18 08:31:59;;;;;;;16.60;7.53;;;;;;;;;;6333461;22;19999;-76
2022/01/18 08:34:25;;;;;;;12.75;6.45;;;;;;;;;;6307122;22;19995;-78
2022/01/18 08:36:51;;;;;;;18.05;6.15;;;;;;;;;;6333608;22;20007;-77
2022/01/18 08:39:40;;;;;;;14.35;6.45;;;;;;;;;;6295066;22;20020;-77
2022/01/18 08:42:08;;;;;;;17.90;6.20;;;;;;;;;;6268377;22;20051;-76
2022/01/18 08:47:41;;;;;;;16.60;6.60;;;;;;;;;;6281467;22;20019;-76
2022/01/18 08:50:11;;;;;;;15.57;6.88;;;;;;;;;;6299240;22;20067;-77
2022/01/18 08:52:48;;;;;;;13.68;6.60;;;;;;;;;;6292587;22;20003;-76
2022/01/18 08:55:29;;;;;;;11.07;6.22;;;;;;;;;;6293188;22;20004;-76
2022/01/18 08:57:57;;;;;;;15.20;6.25;;;;;;;;;;6294100;22;20003;-77
2022/01/18 09:01:24;;;;;;;14.65;5.85;;;;;;;;;;6212136;23;20470;-76
2022/01/18 09:04:26;;;;;;;16.85;6.15;;;;;;;;;;6118706;23;20018;-74
2022/01/18 09:07:01;;;;;;;18.50;8.13;;;;;;;;;;6115827;23;19990;-73
2022/01/18 09:09:31;;;;;;;14.02;6.38;;;;;;;;;;6091930;23;20026;-72
2022/01/18 09:12:06;;;;;;;11.32;6.00;;;;;;;;;;6091546;23;19994;-73
2022/01/18 09:20:31;;;;;;;16.38;5.45;;;;;;;;;;6247322;22;20015;-78
2022/01/18 09:23:00;;;;;;;13.48;5.10;;;;;;;;;;6265010;23;20027;-78
2022/01/18 09:28:10;;;;;;;16.88;6.20;;;;;;;;;;6238071;22;20031;-78
2022/01/18 09:30:37;;;;;;;13.82;5.43;;;;;;;;;;6242033;23;20004;-77
2022/01/18 09:33:27;;;;;;;13.88;5.25;;;;;;;;;;6245648;22;20020;-78
2022/01/18 09:38:30;;;;;;;18.40;8.02;;;;;;;;;;6249513;22;20024;-77
2022/01/18 09:40:57;;;;;;;12.52;5.43;;;;;;;;;;6258592;23;19996;-76
2022/01/18 09:43:23;;;;;;;19.45;5.40;;;;;;;;;;6240822;23;20004;-75
2022/01/18 09:45:49;;;;;;;17.15;5.03;;;;;;;;;;6241963;23;20000;-75
2022/01/18 09:48:15;;;;;;;16.85;6.85;;;;;;;;;;6269165;23;20000;-76
2022/01/18 09:50:44;;;;;;;13.63;5.43;;;;;;;;;;6245350;22;20014;-76
2022/01/18 09:53:12;;;;;;;36.75;16.73;;;;;;;;;;6264796;23;20000;-76
2022/01/18 09:55:42;;;;;;;19.85;8.23;;;;;;;;;;6239390;22;20059;-77
2022/01/18 09:58:11;;;;;;;18.27;5.72;;;;;;;;;;6246163;23;20008;-77
2022/01/18 10:00:42;;;;;;;22.67;9.40;;;;;;;;;;6243383;23;20004;-77
2022/01/18 10:03:24;;;;;;;24.15;6.13;;;;;;;;;;6270301;22;20759;-74
2022/01/18 10:05:50;;;;;;;16.45;6.93;;;;;;;;;;6265383;22;20027;-76
2022/01/18 10:08:17;;;;;;;16.55;6.32;;;;;;;;;;6271227;22;20012;-74
2022/01/18 10:10:51;;;;;;;23.05;8.35;;;;;;;;;;6277236;22;20003;-76
2022/01/18 10:13:27;;;;;;;15.43;5.65;;;;;;;;;;6302752;22;20012;-75
2022/01/18 10:15:59;;;;;;;15.63;6.88;;;;;;;;;;6274155;22;20011;-74
2022/01/18 10:18:53;;;;;;;18.60;6.20;;;;;;;;;;6265610;22;20098;-78
2022/01/18 10:21:35;;;;;;;17.65;6.60;;;;;;;;;;6256493;22;20393;-78
2022/01/18 10:24:16;;;;;;;17.77;6.30;;;;;;;;;;6296005;22;19980;-74
2022/01/18 10:26:44;;;;;;;23.02;5.53;;;;;;;;;;6300078;22;20003;-77
2022/01/18 10:29:13;;;;;;;18.75;6.47;;;;;;;;;;6297674;22;20011;-78
2022/01/18 10:31:44;;;;;;;18.25;6.97;;;;;;;;;;6296507;22;20026;-76
2022/01/18 10:34:30;;;;;;;14.05;5.68;;;;;;;;;;6303073;22;19987;-77
2022/01/18 10:37:01;;;;;;;16.63;6.13;;;;;;;;;;6276791;22;20099;-75
2022/01/18 10:39:31;;;;;;;16.77;5.93;;;;;;;;;;6276865;22;20016;-77
2022/01/18 10:41:57;;;;;;;16.52;5.80;;;;;;;;;;6277278;22;20015;-76
2022/01/18 10:44:26;;;;;;;18.23;8.68;;;;;;;;;;6300408;22;20022;-76
2022/01/18 10:46:56;;;;;;;16.90;5.30;;;;;;;;;;6304201;22;19988;-76
2022/01/18 10:49:48;;;;;;;14.07;5.70;;;;;;;;;;6302539;22;20011;-75
2022/01/18 10:52:18;;;;;;;25.88;8.02;;;;;;;;;;6296231;22;19996;-76
2022/01/18 10:54:46;;;;;;;17.60;5.57;;;;;;;;;;6277928;22;20015;-77
2022/01/18 10:57:14;;;;;;;21.38;6.63;;;;;;;;;;6277026;22;20003;-76
2022/01/18 10:59:41;;;;;;;12.05;5.05;;;;;;;;;;6276572;22;20023;-76
2022/01/18 11:02:10;;;;;;;18.88;5.43;;;;;;;;;;6277973;22;20008;-75
2022/01/18 11:04:36;;;;;;;18.65;5.70;;;;;;;;;;6303696;22;20006;-76
2022/01/18 11:07:03;;;;;;;20.08;5.30;;;;;;;;;;6300236;22;20015;-76
2022/01/18 11:09:30;;;;;;;20.70;5.25;;;;;;;;;;6274320;22;20004;-76
2022/01/18 11:11:56;;;;;;;15.88;5.15;;;;;;;;;;6303361;22;20019;-76
2022/01/18 11:14:24;;;;;;;19.35;6.97;;;;;;;;;;6303787;22;20010;-76
2022/01/18 11:16:56;;;;;;;17.48;7.05;;;;;;;;;;6274844;22;19992;-76
2022/01/18 11:21:53;;;;;;;25.45;5.40;;;;;;;;;;6314573;22;20007;-76
2022/01/18 11:24:20;;;;;;;12.40;4.72;;;;;;;;;;6302556;22;20007;-75
2022/01/18 11:26:47;;;;;;;18.73;5.57;;;;;;;;;;6279040;22;20028;-75
2022/01/18 11:29:17;;;;;;;16.45;4.78;;;;;;;;;;6278685;22;20012;-78
2022/01/18 11:31:50;;;;;;;19.13;5.85;;;;;;;;;;6276640;22;20035;-73
2022/01/18 11:34:38;;;;;;;18.42;5.20;;;;;;;;;;6280039;22;20037;-75
2022/01/18 11:37:11;;;;;;;20.45;5.65;;;;;;;;;;6272210;22;20016;-78
2022/01/18 11:39:39;;;;;;;14.75;4.80;;;;;;;;;;6273563;22;20003;-74
2022/01/18 11:42:07;;;;;;;32.38;10.32;;;;;;;;;;6272390;22;20009;-76
2022/01/18 11:44:35;;;;;;;42.95;17.30;;;;;;;;;;6268421;22;20422;-75
2022/01/18 11:47:03;;;;;;;23.50;9.15;;;;;;;;;;6276687;22;20019;-75
2022/01/18 11:49:34;;;;;;;20.40;11.80;;;;;;;;;;6194386;22;20055;-71
2022/01/18 11:52:34;;;;;;;;;;;;;;;;;;;;;
2022/01/18 11:55:29;;;;;;;14.75;6.00;;;;;;;;;;6195410;22;20015;-73
2022/01/18 11:58:16;;;;;;;14.30;4.85;;;;;;;;;;6301561;22;20028;-72
2022/01/18 12:00:53;;;;;;;15.20;5.30;;;;;;;;;;6275705;22;20027;-75
2022/01/18 12:03:22;;;;;;;12.80;4.57;;;;;;;;;;6275444;22;19988;-74
2022/01/18 12:05:48;;;;;;;14.43;4.53;;;;;;;;;;6274153;22;20014;-74
2022/01/18 12:08:45;;;;;;;17.55;6.25;;;;;;;;;;6274580;22;20055;-76
2022/01/18 12:11:13;;;;;;;19.77;4.97;;;;;;;;;;6275803;22;20078;-73
2022/01/18 12:13:42;;;;;;;14.15;4.57;;;;;;;;;;6278474;22;19998;-74
2022/01/18 12:16:18;;;;;;;18.48;5.10;;;;;;;;;;6268755;22;20035;-75
2022/01/18 12:19:05;;;;;;;35.95;16.88;;;;;;;;;;6274435;22;20003;-74
2022/01/18 12:21:43;;;;;;;16.80;5.60;;;;;;;;;;6303841;22;20010;-78
2022/01/18 12:24:14;;;;;;;18.48;5.82;;;;;;;;;;6279062;22;19988;-79
2022/01/18 12:26:46;;;;;;;19.80;5.50;;;;;;;;;;6277213;22;20011;-77
2022/01/18 12:34:45;;;;;;;11.95;4.70;;;;;;;;;;6141957;23;20093;-78
2022/01/18 12:37:31;;;;;;;14.07;4.65;;;;;;;;;;6138151;23;20523;-78
2022/01/18 12:40:11;;;;;;;12.80;5.05;;;;;;;;;;6054132;23;20534;-78
2022/01/18 12:45:20;;;;;;;20.77;5.47;;;;;;;;;;6041801;23;20500;-75
2022/01/18 12:47:55;;;;;;;16.17;5.38;;;;;;;;;;6042872;23;20018;-77
2022/01/18 12:50:27;;;;;;;26.00;5.85;;;;;;;;;;6040193;23;20271;-76
2022/01/18 12:53:00;;;;;;;15.88;5.10;;;;;;;;;;6048356;23;20006;-77
2022/01/18 12:55:38;;;;;;;17.02;6.22;;;;;;;;;;6053151;23;20011;-79
2022/01/18 12:58:06;;;;;;;13.68;4.75;;;;;;;;;;6049613;23;20064;-78
2022/01/18 13:01:17;;;;;;;;;;;;;;;;;;;;;
2022/01/18 13:03:50;;;;;;;20.42;5.47;;;;;;;;;;5942057;24;20035;-78
2022/01/18 13:06:18;;;;;;;16.03;5.90;;;;;;;;;;5972237;24;20035;-76
2022/01/18 13:08:50;;;;;;;25.70;11.05;;;;;;;;;;5996609;24;20232;-76
2022/01/18 13:11:20;;;;;;;19.60;7.15;;;;;;;;;;5995506;24;20012;-75
2022/01/18 13:14:02;;;;;;;60.58;27.20;;;;;;;;;;5991790;24;20045;-77
2022/01/18 13:27:34;;;;;;;20.38;7.65;;;;;;;;;;6112774;23;20134;-76
2022/01/18 13:30:09;;;;;;;15.65;5.93;;;;;;;;;;6134106;23;20049;-75
2022/01/18 13:32:36;;;;;;;15.98;4.60;;;;;;;;;;6208269;23;20013;-76
2022/01/18 13:35:05;;;;;;;17.30;5.82;;;;;;;;;;6208812;23;20012;-78
2022/01/18 13:37:33;;;;;;;15.13;5.05;;;;;;;;;;6208495;23;20486;-76
2022/01/18 13:40:02;;;;;;;14.95;4.28;;;;;;;;;;6249961;22;20026;-75
2022/01/18 13:42:36;;;;;;;13.23;5.35;;;;;;;;;;6330593;22;20065;-78
2022/01/18 13:45:18;;;;;;;15.98;5.72;;;;;;;;;;6303608;22;20006;-75
2022/01/18 13:47:53;;;;;;;22.63;7.00;;;;;;;;;;6306452;22;20017;-75
2022/01/18 13:50:35;;;;;;;15.85;5.35;;;;;;;;;;6306290;22;20014;-74
2022/01/18 13:53:03;;;;;;;14.15;5.65;;;;;;;;;;6305673;22;19999;-73
2022/01/18 13:55:57;;;;;;;16.05;5.63;;;;;;;;;;6295869;22;20018;-75
2022/01/18 13:58:51;;;;;;;15.68;5.22;;;;;;;;;;6280156;22;19991;-76
2022/01/18 14:01:41;;;;;;;20.38;5.97;;;;;;;;;;6230998;23;20008;-76
2022/01/18 14:04:29;;;;;;;16.92;5.20;;;;;;;;;;6199899;23;20304;-77
2022/01/18 14:06:57;;;;;;;14.63;5.30;;;;;;;;;;6220014;23;20039;-74
2022/01/18 14:09:26;;;;;;;17.38;5.35;;;;;;;;;;6220548;23;20009;-78
2022/01/18 14:11:53;;;;;;;20.52;5.30;;;;;;;;;;6212424;23;20024;-79
2022/01/18 14:14:24;;;;;;;14.63;4.95;;;;;;;;;;6208484;23;20016;-77
2022/01/18 14:16:55;;;;;;;13.85;4.63;;;;;;;;;;6201978;23;19997;-77
2022/01/18 14:19:26;;;;;;;16.85;4.85;;;;;;;;;;6234761;23;19985;-78
2022/01/18 14:21:53;;;;;;;15.65;4.50;;;;;;;;;;6236416;23;20020;-74
2022/01/18 14:24:20;;;;;;;17.20;5.63;;;;;;;;;;6210252;23;19992;-76
2022/01/18 14:26:57;;;;;;;14.75;4.93;;;;;;;;;;6197469;23;20538;-72
2022/01/18 14:29:24;;;;;;;16.08;4.55;;;;;;;;;;6208314;23;20489;-76
2022/01/18 14:32:08;;;;;;;21.83;5.85;;;;;;;;;;6211597;22;20060;-78
2022/01/18 14:34:35;;;;;;;18.65;4.88;;;;;;;;;;6204979;23;20005;-77
2022/01/18 14:37:07;;;;;;;18.35;5.47;;;;;;;;;;6204346;23;20008;-75
2022/01/18 14:39:33;;;;;;;18.00;5.78;;;;;;;;;;6270010;22;20026;-75
2022/01/18 14:42:06;;;;;;;22.70;6.00;;;;;;;;;;6318670;22;20015;-79
2022/01/18 14:44:59;;;;;;;16.77;5.60;;;;;;;;;;6328637;22;20059;-69
2022/01/18 14:47:29;;;;;;;16.05;4.60;;;;;;;;;;6327701;22;20371;-76
2022/01/18 14:50:16;;;;;;;17.65;5.00;;;;;;;;;;6301664;22;20098;-77
2022/01/18 14:52:48;;;;;;;15.63;4.22;;;;;;;;;;6243641;22;20014;-76
2022/01/18 14:55:34;;;;;;;22.23;4.82;;;;;;;;;;6325092;22;20026;-78
2022/01/18 14:58:00;;;;;;;20.08;4.78;;;;;;;;;;6326225;22;20492;-74
2022/01/18 15:00:27;;;;;;;11.57;4.35;;;;;;;;;;6298955;22;20003;-74
2022/01/18 15:02:54;;;;;;;17.45;4.90;;;;;;;;;;6325117;22;20010;-75
2022/01/18 15:05:20;;;;;;;14.50;4.45;;;;;;;;;;6293828;22;20007;-77
2022/01/18 15:07:46;;;;;;;13.50;6.82;;;;;;;;;;6329559;22;20069;-71
2022/01/18 15:10:18;;;;;;;17.90;5.05;;;;;;;;;;6319454;22;20004;-71
2022/01/18 15:12:49;;;;;;;15.18;5.20;;;;;;;;;;6323114;22;20052;-71
2022/01/18 15:15:21;;;;;;;15.73;4.95;;;;;;;;;;6323325;22;19999;-74
2022/01/18 15:17:49;;;;;;;;;;;;;;;;;;6332255;22;20046;-72
2022/01/18 15:20:19;;;;;;;23.65;8.85;;;;;;;;;;6335073;22;19910;-74
2022/01/18 15:22:58;;;;;;;15.45;7.03;;;;;;;;;;6332755;22;19987;-72
2022/01/18 15:25:29;;;;;;;30.85;9.77;;;;;;;;;;6325797;22;19999;-73
2022/01/18 15:30:42;;;;;;;20.20;7.82;;;;;;;;;;6331335;22;20017;-78
2022/01/18 15:33:09;;;;;;;48.67;22.48;;;;;;;;;;6332805;22;20030;-77
2022/01/18 15:35:35;;;;;;;39.30;18.27;;;;;;;;;;6335213;22;20003;-75
2022/01/18 15:38:10;;;;;;;26.15;11.27;;;;;;;;;;6301098;22;20037;-79
2022/01/18 15:40:59;;;;;;;26.35;8.65;;;;;;;;;;6302261;22;19988;-76
2022/01/18 15:43:25;;;;;;;37.13;17.27;;;;;;;;;;6305685;22;20003;-77
2022/01/18 15:45:54;;;;;;;27.10;12.65;;;;;;;;;;6301765;22;20047;-76
2022/01/18 15:48:20;;;;;;;29.15;12.18;;;;;;;;;;6303216;22;20047;-75
2022/01/18 15:50:48;;;;;;;18.08;7.22;;;;;;;;;;6301555;22;20006;-76
2022/01/18 15:53:15;;;;;;;27.92;12.35;;;;;;;;;;6303592;22;20008;-73
2022/01/18 15:55:44;;;;;;;25.40;9.57;;;;;;;;;;6305217;22;20042;-76
2022/01/18 15:58:10;;;;;;;22.48;10.57;;;;;;;;;;6294829;22;20067;-77
2022/01/18 16:06:27;;;;;;;28.33;12.35;;;;;;;;;;6271904;22;20008;-79
2022/01/18 16:11:30;;;;;;;33.90;12.85;;;;;;;;;;6262588;22;20028;-77
2022/01/18 16:13:56;;;;;;;27.10;11.50;;;;;;;;;;6265640;22;20024;-75
2022/01/18 16:16:22;;;;;;;26.63;12.32;;;;;;;;;;6269044;23;20011;-73
2022/01/18 16:18:49;;;;;;;25.30;11.55;;;;;;;;;;6247271;22;19999;-77
2022/01/18 16:21:17;;;;;;;23.77;10.60;;;;;;;;;;6272655;22;19996;-75
2022/01/18 16:23:43;;;;;;;24.30;9.75;;;;;;;;;;6274803;22;19989;-76
2022/01/18 16:29:14;;;;;;;30.45;10.80;;;;;;;;;;6275866;22;20002;-76
2022/01/18 16:31:41;;;;;;;34.22;15.27;;;;;;;;;;6273800;22;20020;-75
2022/01/18 16:34:07;;;;;;;41.53;22.40;;;;;;;;;;6247788;22;20012;-78
2022/01/18 16:36:34;;;;;;;30.88;15.38;;;;;;;;;;6275777;22;19992;-75
2022/01/18 16:39:01;;;;;;;30.73;13.55;;;;;;;;;;6275350;22;20011;-76
2022/01/18 16:46:38;;;;;;;26.00;11.48;;;;;;;;;;6256611;22;20063;-73
2022/01/18 16:54:44;;;;;;;48.65;23.30;;;;;;;;;;6266670;22;20455;-77
2022/01/18 16:57:10;;;;;;;72.25;35.65;;;;;;;;;;6303545;22;20004;-74
2022/01/18 16:59:37;;;;;;;98.25;44.40;;;;;;;;;;6277281;22;20015;-76
2022/01/18 17:02:03;;;;;;;48.85;22.73;;;;;;;;;;6316724;22;20022;-72
2022/01/18 17:04:38;;;;;;;34.95;19.40;;;;;;;;;;6334349;22;20007;-79
2022/01/18 17:07:08;;;;;;;37.88;15.85;;;;;;;;;;6307129;22;20033;-75
2022/01/18 17:10:06;;;;;;;33.33;15.88;;;;;;;;;;6305130;22;20011;-80
2022/01/18 17:15:12;;;;;;;29.92;14.82;;;;;;;;;;6234498;22;20024;-76
2022/01/18 17:17:38;;;;;;;31.17;14.60;;;;;;;;;;6296885;22;20300;-78
2022/01/18 17:20:19;;;;;;;37.30;18.10;;;;;;;;;;6279429;22;20023;-72
2022/01/18 17:22:50;;;;;;;38.47;18.65;;;;;;;;;;6234606;22;20015;-73
2022/01/18 17:25:54;;;;;;;40.08;20.67;;;;;;;;;;6305144;22;19994;-73
2022/01/18 17:28:38;;;;;;;38.97;17.08;;;;;;;;;;6199442;23;19989;-74
2022/01/18 17:31:32;;;;;;;39.78;18.33;;;;;;;;;;6186973;23;20001;-76
2022/01/18 17:34:01;;;;;;;41.70;16.95;;;;;;;;;;6206634;23;20029;-72
2022/01/18 17:36:41;;;;;;;37.80;15.93;;;;;;;;;;6206031;23;20008;-71
2022/01/18 17:39:20;;;;;;;51.30;23.75;;;;;;;;;;6157111;23;20024;-71
2022/01/18 17:42:03;;;;;;;53.03;28.58;;;;;;;;;;6177840;23;20093;-71
2022/01/18 17:44:41;;;;;;;49.88;26.60;;;;;;;;;;6130757;23;20005;-71
2022/01/18 17:47:41;;;;;;;48.65;26.60;;;;;;;;;;6178409;23;20088;-78
2022/01/18 17:50:10;;;;;;;38.13;17.25;;;;;;;;;;6209343;23;20040;-75
2022/01/18 17:55:19;;;;;;;46.72;22.85;;;;;;;;;;6293847;22;20063;-74
2022/01/18 17:57:47;;;;;;;47.92;24.13;;;;;;;;;;6271993;22;19992;-78
2022/01/18 18:00:15;;;;;;;62.47;30.30;;;;;;;;;;6300035;22;20003;-76
2022/01/18 18:02:41;;;;;;;67.10;31.45;;;;;;;;;;6314275;22;20010;-73
2022/01/18 18:05:07;;;;;;;74.60;32.58;;;;;;;;;;6285205;22;19999;-75
2022/01/18 18:07:33;;;;;;;76.38;35.28;;;;;;;;;;6308687;22;20007;-75
2022/01/18 18:09:59;;;;;;;67.18;35.28;;;;;;;;;;6314112;22;19999;-78
2022/01/18 18:12:33;;;;;;;64.18;32.45;;;;;;;;;;6285682;22;20030;-77
2022/01/18 18:15:30;;;;;;;68.50;34.95;;;;;;;;;;6304911;22;20003;-76
2022/01/18 18:17:58;;;;;;;56.00;28.10;;;;;;;;;;6313379;22;20042;-74
2022/01/18 18:20:27;;;;;;;56.75;26.70;;;;;;;;;;6299041;22;20003;-71
2022/01/18 18:23:05;;;;;;;56.90;26.77;;;;;;;;;;6328105;22;20010;-73
2022/01/18 18:25:31;;;;;;;48.78;25.30;;;;;;;;;;6288172;22;20018;-75
2022/01/18 18:28:27;;;;;;;91.93;43.83;;;;;;;;;;6324011;22;19980;-74
2022/01/18 18:30:53;;;;;;;103.75;48.97;;;;;;;;;;6208863;23;20020;-76
2022/01/18 18:33:19;;;;;;;76.88;37.97;;;;;;;;;;6199001;23;20031;-76
2022/01/18 18:36:30;;;;;;;70.28;35.90;;;;;;;;;;6206597;23;20019;-71
2022/01/18 18:39:27;;;;;;;61.10;33.83;;;;;;;;;;6216458;23;20005;-73
2022/01/18 18:44:29;;;;;;;62.55;29.00;;;;;;;;;;6240501;23;20450;-77
2022/01/18 18:46:57;;;;;;;54.50;24.83;;;;;;;;;;6234169;23;20188;-76
2022/01/18 18:49:41;;;;;;;;;;;;;;;;;;;;;
2022/01/18 18:52:10;;;;;;;51.40;22.80;;;;;;;;;;6225733;23;20039;-77
2022/01/18 18:54:39;;;;;;;53.55;23.58;;;;;;;;;;6226825;23;20062;-71
2022/01/18 18:57:05;;;;;;;82.78;36.97;;;;;;;;;;6140894;23;20014;-72
2022/01/18 19:03:00;;;;;;;59.70;26.55;;;;;;;;;;6074423;23;20039;-75
2022/01/18 19:05:26;;;;;;;70.57;27.27;;;;;;;;;;6088180;23;20007;-75
2022/01/18 19:08:17;;;;;;;52.75;23.88;;;;;;;;;;6087731;23;20011;-73
2022/01/18 19:11:03;;;;;;;61.88;29.92;;;;;;;;;;6086032;23;20034;-73
2022/01/18 19:13:31;;;;;;;58.55;21.85;;;;;;;;;;6088616;23;20033;-75
2022/01/18 19:16:00;;;;;;;59.50;25.23;;;;;;;;;;6089554;23;20030;-74
2022/01/18 19:18:26;;;;;;;58.22;27.33;;;;;;;;;;6088822;23;20007;-75
2022/01/18 19:20:54;;;;;;;55.28;25.42;;;;;;;;;;6086680;23;20139;-74
2022/01/18 19:23:23;;;;;;;46.47;19.90;;;;;;;;;;6083590;23;20022;-72
2022/01/18 19:25:52;;;;;;;44.45;16.13;;;;;;;;;;6085275;23;20022;-75
2022/01/18 19:28:22;;;;;;;40.25;16.60;;;;;;;;;;6108324;23;20014;-72
2022/01/18 19:31:20;;;;;;;42.30;14.95;;;;;;;;;;6148521;23;20484;-73
2022/01/18 19:33:49;;;;;;;70.72;27.10;;;;;;;;;;6147740;23;20009;-74
2022/01/18 19:36:22;;;;;;;76.78;29.88;;;;;;;;;;6145970;23;20045;-72
2022/01/18 19:38:51;;;;;;;100.75;35.15;;;;;;;;;;6235961;23;20011;-74
2022/01/18 19:41:19;;;;;;;89.05;33.20;;;;;;;;;;6262504;23;20030;-74
2022/01/18 19:43:51;;;;;;;70.13;30.73;;;;;;;;;;6265525;22;20000;-74
2022/01/18 19:46:22;;;;;;;82.28;36.22;;;;;;;;;;6260459;23;20272;-79
2022/01/18 19:48:56;;;;;;;;;;;;;;;;;;6245524;23;20001;-74
2022/01/18 19:51:59;;;;;;;75.95;34.28;;;;;;;;;;6268302;23;19914;-74
2022/01/18 19:54:25;;;;;;;49.85;23.13;;;;;;;;;;6276488;22;20015;-75
2022/01/18 19:56:53;;;;;;;55.90;24.15;;;;;;;;;;6292846;22;20012;-74
2022/01/18 19:59:19;;;;;;;56.92;26.98;;;;;;;;;;6295073;22;20003;-74
2022/01/18 20:01:49;;;;;;;69.43;35.58;;;;;;;;;;6298282;22;20003;-76
2022/01/18 20:04:15;;;;;;;46.42;22.20;;;;;;;;;;6297156;22;20002;-77
2022/01/18 20:06:42;;;;;;;64.75;29.38;;;;;;;;;;6289466;22;20054;-79
2022/01/18 20:09:13;;;;;;;58.50;32.35;;;;;;;;;;6290626;22;20058;-79
2022/01/18 20:12:04;;;;;;;46.65;29.10;;;;;;;;;;6296394;22;20082;-78
2022/01/18 20:14:31;;;;;;;54.97;30.33;;;;;;;;;;6296924;22;20061;-74
2022/01/18 20:17:06;;;;;;;48.75;23.60;;;;;;;;;;6294019;22;20076;-75
2022/01/18 20:19:37;;;;;;;71.47;37.97;;;;;;;;;;6291357;22;20027;-71
2022/01/18 20:22:07;;;;;;;69.60;33.50;;;;;;;;;;6286252;22;20027;-71
2022/01/18 20:27:35;;;;;;;68.72;38.80;;;;;;;;;;6298825;22;20005;-76
2022/01/18 20:30:13;;;;;;;61.08;28.70;;;;;;;;;;6291333;22;20000;-74
2022/01/18 20:32:42;;;;;;;53.80;26.40;;;;;;;;;;6295837;22;20012;-72
2022/01/18 20:35:11;;;;;;;46.70;23.02;;;;;;;;;;6297669;22;20311;-72
2022/01/18 20:37:58;;;;;;;49.40;24.98;;;;;;;;;;6298997;22;20056;-72
2022/01/18 20:41:01;;;;;;;83.65;39.35;;;;;;;;;;6271601;22;20027;-72
2022/01/18 20:43:37;;;;;;;62.30;27.20;;;;;;;;;;6123928;23;20113;-71
2022/01/18 20:46:19;;;;;;;55.40;24.02;;;;;;;;;;6066470;23;20393;-77
2022/01/18 20:48:52;;;;;;;76.32;32.55;;;;;;;;;;6126633;23;20010;-77
2022/01/18 20:51:52;;;;;;;54.55;24.30;;;;;;;;;;6150361;23;20002;-78
2022/01/18 20:54:18;;;;;;;52.42;25.85;;;;;;;;;;6063217;23;20018;-77
2022/01/18 20:56:48;;;;;;;68.03;30.02;;;;;;;;;;6064738;23;19999;-75
2022/01/18 20:59:15;;;;;;;55.58;22.95;;;;;;;;;;6066346;23;19987;-75
2022/01/18 21:02:01;;;;;;;39.50;16.92;;;;;;;;;;6066393;23;19996;-77
2022/01/18 21:04:47;;;;;;;44.33;18.15;;;;;;;;;;6066882;23;20007;-74
2022/01/18 21:07:13;;;;;;;46.08;19.35;;;;;;;;;;6067721;23;19994;-71
2022/01/18 21:09:59;;;;;;;41.15;21.05;;;;;;;;;;6067817;23;19991;-78
2022/01/18 21:13:00;;;;;;;47.33;17.95;;;;;;;;;;5963636;24;20040;-74
2022/01/18 21:15:30;;;;;;;40.45;17.00;;;;;;;;;;5963992;23;19996;-74
2022/01/18 21:17:57;;;;;;;38.65;17.75;;;;;;;;;;5986245;24;20008;-71
2022/01/18 21:20:23;;;;;;;44.08;17.67;;;;;;;;;;6077639;23;20051;-74
2022/01/18 21:23:17;;;;;;;36.58;17.38;;;;;;;;;;6095937;23;20002;-73
2022/01/18 21:25:48;;;;;;;45.63;19.85;;;;;;;;;;6093500;23;20009;-75
2022/01/18 21:29:08;;;;;;;41.80;18.23;;;;;;;;;;6010111;23;20061;-74
2022/01/18 21:32:07;;;;;;;39.05;18.73;;;;;;;;;;6012997;23;20041;-72
2022/01/18 21:35:05;;;;;;;53.97;21.25;;;;;;;;;;5953803;23;20069;-77
2022/01/18 21:41:25;;;;;;;54.28;21.88;;;;;;;;;;5954648;24;20008;-71
2022/01/18 21:44:19;;;;;;;45.67;20.10;;;;;;;;;;5972816;23;20001;-74
2022/01/18 21:46:45;;;;;;;47.65;19.05;;;;;;;;;;5982256;23;20004;-74
2022/01/18 21:49:14;;;;;;;67.57;31.00;;;;;;;;;;5981351;24;19996;-71
2022/01/18 21:52:17;;;;;;;64.45;32.60;;;;;;;;;;5981995;23;20088;-74
2022/01/18 21:57:29;;;;;;;46.05;24.85;;;;;;;;;;6275435;22;20024;-72
2022/01/18 21:59:57;;;;;;;44.42;20.73;;;;;;;;;;6279594;22;19992;-74
2022/01/18 22:05:03;;;;;;;51.40;24.00;;;;;;;;;;6272525;22;20008;-71
2022/01/18 22:07:31;;;;;;;37.78;16.15;;;;;;;;;;6274286;22;20034;-71
2022/01/18 22:09:57;;;;;;;40.55;16.48;;;;;;;;;;6273781;22;20055;-76
2022/01/18 22:12:23;;;;;;;36.65;15.65;;;;;;;;;;6271789;22;20000;-71
2022/01/18 22:15:18;;;;;;;37.65;14.98;;;;;;;;;;6270763;22;19999;-71
2022/01/18 22:17:46;;;;;;;34.20;14.88;;;;;;;;;;6275331;22;20004;-73
2022/01/18 22:20:16;;;;;;;35.22;14.35;;;;;;;;;;6274269;22;19993;-78
2022/01/18 22:23:18;;;;;;;38.92;14.38;;;;;;;;;;6212819;23;19993;-74
2022/01/18 22:26:17;;;;;;;36.15;14.25;;;;;;;;;;6211564;23;19993;-77
2022/01/18 22:29:05;;;;;;;32.00;12.63;;;;;;;;;;6153776;23;20040;-71
2022/01/18 22:31:33;;;;;;;30.35;13.18;;;;;;;;;;6066025;23;20003;-75